Time;durP1;ratioP1;P1;durP2;ratioP2;P2;SDS_P1;SDS_P2;PMS_P1;PMS_P2;Temp;Humidity;BMP_temperature;BMP_pressure;BME280_temperature;BME280_humidity;BME280_pressure;Samples;Min_cycle;Max_cycle;Signal;HPM_P1;HPM_P2
2023/07/29 00:00:12;;;;;;;3.50;1.80;;;25.60;96.70;;;;;;5043881;28;20116;-76
2023/07/29 00:02:41;;;;;;;4.28;2.00;;;25.60;96.70;;;;;;5045530;28;20041;-77
2023/07/29 00:05:09;;;;;;;6.55;2.20;;;25.70;96.70;;;;;;5044325;28;20402;-78
2023/07/29 00:07:37;;;;;;;6.57;2.15;;;25.70;96.70;;;;;;5043141;28;20414;-77
2023/07/29 00:10:08;;;;;;;4.07;1.90;;;25.70;96.70;;;;;;5042247;28;20055;-78
2023/07/29 00:12:36;;;;;;;5.32;2.10;;;25.60;96.70;;;;;;5044399;28;20045;-77
2023/07/29 00:15:05;;;;;;;3.80;2.20;;;25.60;96.70;;;;;;5038557;28;20036;-77
2023/07/29 00:17:33;;;;;;;3.90;2.13;;;25.60;96.70;;;;;;5044280;28;20138;-77
2023/07/29 00:20:01;;;;;;;6.43;2.03;;;25.80;96.70;;;;;;5043343;28;20538;-78
2023/07/29 00:22:29;;;;;;;6.97;2.42;;;25.80;96.70;;;;;;5043128;28;20045;-76
2023/07/29 00:25:04;;;;;;;7.97;2.55;;;25.80;96.70;;;;;;5043890;28;20037;-77
2023/07/29 00:27:34;;;;;;;4.47;2.20;;;25.70;96.70;;;;;;5041825;28;20135;-77
2023/07/29 00:30:02;;;;;;;4.80;2.28;;;25.70;96.70;;;;;;5026722;28;20561;-77
2023/07/29 00:32:31;;;;;;;5.43;2.28;;;25.70;96.70;;;;;;5042639;28;20045;-77
2023/07/29 00:35:00;;;;;;;3.20;1.85;;;25.70;96.70;;;;;;5042160;28;20486;-77
2023/07/29 00:37:31;;;;;;;5.07;2.33;;;25.60;96.70;;;;;;5035900;28;20053;-78
2023/07/29 00:39:59;;;;;;;3.83;2.08;;;25.60;96.70;;;;;;5042584;28;20102;-77
2023/07/29 00:42:27;;;;;;;5.75;2.00;;;25.60;96.70;;;;;;5042928;28;20037;-78
2023/07/29 00:44:56;;;;;;;4.05;2.17;;;25.60;96.70;;;;;;5043178;28;20421;-77
2023/07/29 00:47:26;;;;;;;4.10;2.00;;;25.60;96.70;;;;;;5041304;28;20451;-77
2023/07/29 00:49:54;;;;;;;4.18;2.03;;;25.50;96.70;;;;;;5037671;28;20498;-77
2023/07/29 00:52:22;;;;;;;4.95;2.08;;;25.60;96.70;;;;;;5043158;28;20064;-77
2023/07/29 00:54:50;;;;;;;5.50;2.08;;;25.50;96.70;;;;;;5042393;28;20049;-78
2023/07/29 00:57:20;;;;;;;4.55;2.08;;;25.50;96.70;;;;;;5042518;28;20543;-77
2023/07/29 00:59:48;;;;;;;4.18;1.90;;;25.50;96.70;;;;;;5039201;28;20075;-77
2023/07/29 01:02:18;;;;;;;4.00;2.05;;;25.50;96.70;;;;;;5044395;28;20049;-77
2023/07/29 01:04:51;;;;;;;5.60;2.20;;;25.40;96.70;;;;;;5042698;28;20053;-77
2023/07/29 01:07:26;;;;;;;3.25;1.77;;;25.40;96.70;;;;;;5043775;28;20041;-77
2023/07/29 01:10:00;;;;;;;3.42;1.85;;;25.40;96.70;;;;;;5040222;28;20040;-78
2023/07/29 01:12:37;;;;;;;4.75;2.20;;;25.40;96.70;;;;;;5045593;28;20036;-77
2023/07/29 01:15:12;;;;;;;4.78;2.05;;;25.30;96.70;;;;;;5042736;28;20052;-77
2023/07/29 01:17:46;;;;;;;3.20;1.80;;;25.20;96.70;;;;;;5042708;28;20118;-77
2023/07/29 01:20:17;;;;;;;3.58;2.17;;;25.20;96.70;;;;;;5042772;28;20494;-77
2023/07/29 01:22:45;;;;;;;4.78;1.83;;;25.10;96.70;;;;;;5042985;28;20045;-78
2023/07/29 01:25:14;;;;;;;4.63;2.10;;;25.10;96.70;;;;;;5043082;28;20048;-76
2023/07/29 01:27:43;;;;;;;5.35;2.50;;;25.00;96.70;;;;;;5042746;28;20064;-76
2023/07/29 01:30:12;;;;;;;4.85;1.98;;;25.00;96.70;;;;;;5041849;28;20056;-76
2023/07/29 01:32:49;;;;;;;4.53;1.98;;;24.90;96.70;;;;;;5041500;28;20139;-76
2023/07/29 01:35:23;;;;;;;3.53;1.95;;;24.90;96.70;;;;;;5025721;28;20099;-76
2023/07/29 01:37:56;;;;;;;6.60;1.83;;;24.90;96.70;;;;;;5042985;28;20513;-77
2023/07/29 01:40:28;;;;;;;5.43;2.50;;;24.90;96.70;;;;;;5038747;28;20103;-78
2023/07/29 01:42:57;;;;;;;6.07;2.55;;;24.90;96.70;;;;;;5040494;28;20708;-77
2023/07/29 01:45:27;;;;;;;3.85;2.10;;;24.90;96.70;;;;;;5043332;28;20045;-77
2023/07/29 01:47:55;;;;;;;4.65;1.85;;;24.90;96.70;;;;;;5041903;28;20057;-77
2023/07/29 01:50:24;;;;;;;4.45;2.10;;;24.80;96.70;;;;;;5041660;28;20529;-77
2023/07/29 01:52:52;;;;;;;4.68;2.20;;;24.80;96.70;;;;;;5041824;28;20060;-76
2023/07/29 01:55:20;;;;;;;4.85;2.00;;;24.80;96.70;;;;;;5041116;28;20629;-77
2023/07/29 01:57:51;;;;;;;4.50;2.13;;;24.70;96.70;;;;;;5024327;28;20498;-77
2023/07/29 02:00:19;;;;;;;5.43;2.10;;;24.80;96.70;;;;;;5045552;28;20091;-77
2023/07/29 02:02:47;;;;;;;4.70;2.45;;;24.70;96.70;;;;;;5045879;28;20040;-76
2023/07/29 02:05:15;;;;;;;6.30;2.35;;;24.70;96.70;;;;;;5045211;28;20045;-77
2023/07/29 02:07:43;;;;;;;2.97;1.80;;;24.60;96.70;;;;;;5045714;28;20048;-77
2023/07/29 02:10:11;;;;;;;2.90;1.52;;;24.60;96.70;;;;;;5044499;28;20044;-77
2023/07/29 02:12:39;;;;;;;4.60;1.90;;;24.60;96.70;;;;;;5044517;28;20057;-76
2023/07/29 02:15:10;;;;;;;4.35;2.42;;;24.60;96.70;;;;;;5044609;28;20050;-77
2023/07/29 02:17:38;;;;;;;3.70;2.20;;;24.60;96.70;;;;;;5047091;28;20091;-77
2023/07/29 02:20:07;;;;;;;4.35;2.13;;;24.60;96.70;;;;;;5045308;28;20468;-77
2023/07/29 02:22:35;;;;;;;6.57;2.45;;;24.50;96.70;;;;;;5046008;28;20051;-76
2023/07/29 02:25:04;;;;;;;5.35;2.15;;;24.50;96.70;;;;;;5034882;28;20494;-77
2023/07/29 02:27:33;;;;;;;5.85;2.20;;;24.40;96.70;;;;;;5041981;28;20136;-77
2023/07/29 02:30:01;;;;;;;5.65;2.05;;;24.40;96.70;;;;;;5044491;28;20416;-77
2023/07/29 02:32:31;;;;;;;4.40;2.33;;;24.40;96.70;;;;;;5045150;28;20079;-77
2023/07/29 02:34:59;;;;;;;8.07;2.20;;;24.40;96.70;;;;;;5043807;28;20053;-77
2023/07/29 02:37:27;;;;;;;5.25;2.08;;;24.40;96.70;;;;;;5045490;28;20056;-77
2023/07/29 02:39:55;;;;;;;7.15;2.30;;;24.30;96.70;;;;;;5043826;28;20037;-76
2023/07/29 02:42:23;;;;;;;3.90;2.10;;;24.30;96.70;;;;;;5041094;28;20049;-77
2023/07/29 02:44:51;;;;;;;4.07;2.08;;;24.30;96.70;;;;;;5044662;28;20056;-76
2023/07/29 02:47:19;;;;;;;5.95;2.50;;;24.30;96.70;;;;;;5045035;28;20037;-76
2023/07/29 02:49:49;;;;;;;6.57;2.20;;;24.30;96.70;;;;;;5044544;28;20602;-76
2023/07/29 02:52:16;;;;;;;3.55;1.77;;;24.30;96.70;;;;;;5051203;28;20044;-77
2023/07/29 02:54:45;;;;;;;6.38;2.40;;;24.30;96.70;;;;;;5028026;28;20056;-77
2023/07/29 02:57:13;;;;;;;4.30;1.90;;;24.30;96.70;;;;;;5028556;28;20187;-77
2023/07/29 02:59:41;;;;;;;5.88;2.03;;;24.20;96.70;;;;;;5044499;28;20048;-77
2023/07/29 03:02:09;;;;;;;5.57;2.30;;;24.20;96.70;;;;;;5028852;28;20531;-76
2023/07/29 03:04:37;;;;;;;7.65;2.13;;;24.20;96.70;;;;;;5028331;28;20056;-77
2023/07/29 03:07:07;;;;;;;6.20;2.45;;;24.10;96.70;;;;;;5044330;28;20103;-76
2023/07/29 03:09:36;;;;;;;5.20;2.10;;;24.00;96.70;;;;;;5044294;28;20510;-76
2023/07/29 03:12:04;;;;;;;7.10;2.63;;;24.00;96.70;;;;;;5044941;28;20049;-77
2023/07/29 03:14:32;;;;;;;4.63;2.00;;;24.00;96.70;;;;;;5044503;28;20052;-77
2023/07/29 03:17:04;;;;;;;8.25;2.50;;;24.00;96.70;;;;;;5028246;28;20060;-77
2023/07/29 03:19:32;;;;;;;4.00;1.90;;;24.10;96.70;;;;;;5044777;28;20049;-76
2023/07/29 03:22:00;;;;;;;5.40;2.13;;;24.10;96.70;;;;;;5044739;28;20502;-76
2023/07/29 03:24:30;;;;;;;4.20;2.08;;;24.00;96.70;;;;;;5028648;28;20457;-76
2023/07/29 03:26:57;;;;;;;3.35;2.08;;;24.10;96.70;;;;;;5044020;28;20116;-76
2023/07/29 03:29:26;;;;;;;4.93;1.92;;;24.10;96.70;;;;;;5043568;28;20143;-77
2023/07/29 03:31:54;;;;;;;4.13;1.92;;;24.10;96.70;;;;;;5044558;28;20053;-76
2023/07/29 03:34:23;;;;;;;3.95;2.40;;;24.00;96.70;;;;;;5029949;28;20041;-77
2023/07/29 03:36:51;;;;;;;3.15;1.85;;;23.90;96.70;;;;;;5044219;28;20045;-77
2023/07/29 03:39:19;;;;;;;5.43;2.15;;;24.10;96.70;;;;;;5043785;28;20036;-76
2023/07/29 03:41:49;;;;;;;4.95;2.40;;;24.10;96.70;;;;;;5044196;28;20508;-77
2023/07/29 03:44:18;;;;;;;4.80;2.60;;;24.00;96.70;;;;;;5043216;28;20199;-76
2023/07/29 03:46:46;;;;;;;5.40;2.72;;;23.90;96.70;;;;;;5043568;28;20135;-77
2023/07/29 03:49:14;;;;;;;3.95;2.05;;;23.90;96.70;;;;;;5038700;28;20044;-76
2023/07/29 03:51:42;;;;;;;3.85;1.92;;;23.90;96.70;;;;;;5043509;28;20044;-77
2023/07/29 03:54:11;;;;;;;3.33;1.88;;;24.00;96.70;;;;;;5044695;28;20047;-76
2023/07/29 03:56:39;;;;;;;2.38;1.67;;;24.00;96.70;;;;;;5043225;28;20045;-76
2023/07/29 03:59:08;;;;;;;3.40;2.13;;;24.00;96.70;;;;;;5043122;28;20057;-76
2023/07/29 04:01:36;;;;;;;4.15;2.20;;;23.90;96.70;;;;;;5026436;28;20458;-76
2023/07/29 04:04:04;;;;;;;4.30;2.20;;;23.80;96.70;;;;;;5043356;28;20045;-76
2023/07/29 04:06:32;;;;;;;4.95;2.10;;;23.80;96.70;;;;;;5039772;28;20102;-76
2023/07/29 04:09:01;;;;;;;4.07;1.95;;;23.80;96.70;;;;;;5044469;28;20467;-76
2023/07/29 04:11:29;;;;;;;4.13;2.17;;;23.90;96.70;;;;;;5044097;28;20095;-76
2023/07/29 04:13:57;;;;;;;3.60;1.88;;;23.90;96.70;;;;;;5043920;28;20047;-76
2023/07/29 04:16:28;;;;;;;6.60;2.17;;;23.90;96.70;;;;;;5026349;28;20586;-76
2023/07/29 04:18:56;;;;;;;3.42;2.05;;;23.90;96.70;;;;;;5044856;28;20115;-76
2023/07/29 04:21:24;;;;;;;6.82;2.25;;;23.80;96.70;;;;;;5042771;28;20156;-76
2023/07/29 04:23:52;;;;;;;7.13;2.25;;;23.80;96.70;;;;;;5042640;28;20049;-76
2023/07/29 04:26:20;;;;;;;5.97;2.45;;;23.80;96.70;;;;;;5043030;28;20045;-76
2023/07/29 04:28:48;;;;;;;5.55;2.00;;;23.80;96.70;;;;;;5025796;28;20055;-77
2023/07/29 04:31:16;;;;;;;7.57;2.22;;;23.70;96.70;;;;;;5043283;28;20217;-77
2023/07/29 04:33:45;;;;;;;5.57;2.20;;;23.70;96.70;;;;;;5042313;28;20041;-77
2023/07/29 04:36:13;;;;;;;6.15;2.72;;;23.80;96.70;;;;;;5043234;28;20405;-76
2023/07/29 04:38:44;;;;;;;9.80;2.58;;;23.90;96.70;;;;;;5041400;28;20049;-77
2023/07/29 04:41:12;;;;;;;7.28;2.75;;;24.00;96.70;;;;;;5025391;28;20049;-76
2023/07/29 04:43:41;;;;;;;8.23;2.60;;;24.00;96.70;;;;;;5036104;28;20041;-76
2023/07/29 04:46:09;;;;;;;5.43;2.45;;;23.90;96.70;;;;;;5044574;28;20073;-83
2023/07/29 04:48:38;;;;;;;7.68;2.65;;;24.00;96.70;;;;;;5036728;28;20171;-83
2023/07/29 04:51:07;;;;;;;7.68;3.25;;;24.00;96.70;;;;;;5040324;28;20475;-83
2023/07/29 04:53:36;;;;;;;7.32;3.05;;;24.00;96.70;;;;;;5043993;28;20049;-82
2023/07/29 04:56:04;;;;;;;9.13;3.88;;;24.00;96.70;;;;;;5045130;28;20041;-83
2023/07/29 04:58:35;;;;;;;10.00;5.55;;;24.10;96.70;;;;;;5042416;28;20103;-82
2023/07/29 05:01:03;;;;;;;8.15;4.28;;;24.00;96.70;;;;;;5045045;28;20041;-83
2023/07/29 05:03:31;;;;;;;7.90;3.20;;;24.10;96.70;;;;;;5042924;28;20056;-83
2023/07/29 05:05:59;;;;;;;5.78;3.17;;;24.10;96.70;;;;;;5046166;28;20561;-81
2023/07/29 05:08:30;;;;;;;5.18;2.53;;;24.00;96.70;;;;;;5035631;28;20079;-82
2023/07/29 05:10:58;;;;;;;5.80;2.63;;;24.00;96.70;;;;;;5044943;28;20067;-82
2023/07/29 05:13:28;;;;;;;5.55;2.58;;;24.00;96.70;;;;;;5044464;28;20526;-80
2023/07/29 05:15:56;;;;;;;4.72;2.60;;;24.10;96.70;;;;;;5044340;28;20148;-81
2023/07/29 05:18:24;;;;;;;8.88;2.83;;;24.00;96.70;;;;;;5042000;28;20542;-83
2023/07/29 05:20:52;;;;;;;4.93;2.30;;;24.00;96.70;;;;;;5043958;28;20119;-82
2023/07/29 05:23:20;;;;;;;5.38;2.53;;;24.10;96.70;;;;;;5027319;28;20653;-83
2023/07/29 05:25:50;;;;;;;6.72;2.60;;;24.10;96.70;;;;;;5044110;28;20384;-82
2023/07/29 05:28:18;;;;;;;3.63;2.50;;;24.10;96.70;;;;;;5043809;28;20136;-83
2023/07/29 05:30:46;;;;;;;3.85;2.60;;;24.10;96.70;;;;;;5033777;28;20056;-83
2023/07/29 05:33:14;;;;;;;3.72;2.45;;;24.00;96.70;;;;;;5042469;28;20626;-81
2023/07/29 05:35:43;;;;;;;6.32;3.10;;;24.00;96.70;;;;;;5048027;28;20048;-82
2023/07/29 05:38:11;;;;;;;5.05;2.60;;;24.10;96.70;;;;;;5036146;28;20055;-82
2023/07/29 05:40:39;;;;;;;3.90;2.40;;;24.10;96.70;;;;;;5037660;28;20406;-82
2023/07/29 05:43:08;;;;;;;4.28;2.47;;;24.10;96.70;;;;;;5039271;28;20130;-83
2023/07/29 05:45:36;;;;;;;8.68;3.17;;;24.30;96.70;;;;;;5043871;28;20052;-81
2023/07/29 05:48:05;;;;;;;4.43;2.20;;;24.30;96.70;;;;;;5043314;28;20084;-82
2023/07/29 05:50:33;;;;;;;8.48;2.55;;;24.30;96.70;;;;;;5037429;28;20139;-82
2023/07/29 05:53:01;;;;;;;5.53;2.85;;;24.50;96.70;;;;;;5043653;28;20048;-81
2023/07/29 05:55:29;;;;;;;4.68;2.42;;;24.50;96.70;;;;;;5042769;28;20045;-80
2023/07/29 05:57:57;;;;;;;8.32;2.97;;;24.60;96.70;;;;;;5043575;28;20068;-79
2023/07/29 06:00:27;;;;;;;4.57;2.00;;;24.60;96.70;;;;;;5031270;28;20495;-78
2023/07/29 06:02:55;;;;;;;5.57;2.60;;;24.70;96.70;;;;;;5058999;28;20095;-78
2023/07/29 06:05:23;;;;;;;7.05;2.47;;;24.80;96.70;;;;;;5043298;28;20072;-79
2023/07/29 06:07:52;;;;;;;9.45;2.65;;;24.80;96.70;;;;;;5041358;28;20045;-78
2023/07/29 06:10:20;;;;;;;4.90;2.63;;;24.80;96.70;;;;;;5041873;28;20055;-78
2023/07/29 06:12:48;;;;;;;4.22;2.40;;;24.90;96.70;;;;;;5041644;28;20508;-78
2023/07/29 06:15:16;;;;;;;6.30;2.65;;;24.90;96.70;;;;;;5025989;28;20068;-77
2023/07/29 06:17:46;;;;;;;6.50;2.75;;;24.80;96.70;;;;;;5039205;28;20140;-78
2023/07/29 06:20:14;;;;;;;5.72;3.05;;;24.80;96.70;;;;;;5041375;28;20564;-77
2023/07/29 06:22:43;;;;;;;5.03;2.72;;;24.80;96.70;;;;;;5056607;28;20525;-77
2023/07/29 06:25:11;;;;;;;5.68;2.38;;;24.90;96.70;;;;;;5042537;28;20044;-77
2023/07/29 06:27:39;;;;;;;6.68;2.47;;;24.90;96.70;;;;;;5040638;28;20064;-78
2023/07/29 06:30:07;;;;;;;4.38;2.53;;;24.90;96.70;;;;;;5041053;28;20052;-77
2023/07/29 06:32:36;;;;;;;6.05;2.38;;;25.00;96.70;;;;;;5041756;28;20056;-77
2023/07/29 06:35:06;;;;;;;3.70;2.10;;;25.00;96.70;;;;;;5041815;28;20045;-77
2023/07/29 06:37:34;;;;;;;4.85;2.42;;;25.10;96.70;;;;;;5041725;28;20068;-77
2023/07/29 06:40:03;;;;;;;3.63;2.33;;;25.10;96.70;;;;;;5025077;28;20525;-77
2023/07/29 06:42:31;;;;;;;5.60;2.40;;;25.20;96.70;;;;;;5041014;28;20504;-77
2023/07/29 06:44:59;;;;;;;6.15;2.58;;;25.30;96.70;;;;;;5037619;28;20045;-77
2023/07/29 06:47:27;;;;;;;7.00;2.50;;;25.30;96.70;;;;;;5046613;28;20414;-77
2023/07/29 06:49:55;;;;;;;4.80;2.20;;;25.30;96.70;;;;;;5044977;28;20045;-77
2023/07/29 06:52:25;;;;;;;4.28;2.28;;;25.30;96.70;;;;;;5045451;28;20056;-77
2023/07/29 06:54:53;;;;;;;4.75;1.90;;;25.40;96.70;;;;;;5028137;28;20490;-76
2023/07/29 06:57:21;;;;;;;5.88;2.15;;;25.40;96.70;;;;;;5044679;28;20044;-77
2023/07/29 06:59:49;;;;;;;4.22;2.10;;;25.50;96.70;;;;;;5044902;28;20716;-77
2023/07/29 07:02:17;;;;;;;5.28;2.00;;;25.50;96.70;;;;;;5045028;28;20128;-78
2023/07/29 07:04:45;;;;;;;3.15;1.90;;;25.60;96.70;;;;;;5044788;28;20048;-77
2023/07/29 07:07:13;;;;;;;6.03;2.33;;;25.70;96.70;;;;;;5045100;28;20075;-77
2023/07/29 07:09:43;;;;;;;6.63;2.08;;;25.80;96.70;;;;;;5043904;28;20095;-77
2023/07/29 07:12:11;;;;;;;3.85;1.80;;;25.80;96.70;;;;;;5045925;28;20060;-77
2023/07/29 07:14:39;;;;;;;3.58;1.92;;;25.80;96.70;;;;;;5044254;28;20086;-77
2023/07/29 07:17:07;;;;;;;4.35;1.80;;;25.90;96.70;;;;;;5046033;28;20522;-77
2023/07/29 07:19:40;;;;;;;4.85;1.77;;;25.90;96.70;;;;;;5044521;28;20048;-77
2023/07/29 07:22:08;;;;;;;3.95;1.70;;;25.90;96.70;;;;;;5044217;28;20225;-78
2023/07/29 07:24:36;;;;;;;5.05;1.88;;;26.00;96.70;;;;;;5045385;28;20051;-77
2023/07/29 07:27:06;;;;;;;8.50;2.40;;;26.00;96.70;;;;;;5046342;28;20569;-77
2023/07/29 07:29:34;;;;;;;4.28;2.10;;;26.00;96.70;;;;;;5045917;28;20052;-77
2023/07/29 07:32:03;;;;;;;6.10;2.00;;;26.00;96.70;;;;;;5046124;28;20120;-77
2023/07/29 07:34:33;;;;;;;10.52;2.10;;;26.10;96.70;;;;;;5045812;28;20453;-77
2023/07/29 07:37:01;;;;;;;4.25;1.98;;;26.30;96.70;;;;;;5044029;28;20071;-77
2023/07/29 07:39:29;;;;;;;3.47;1.92;;;26.30;96.70;;;;;;5044202;28;20053;-77
2023/07/29 07:41:57;;;;;;;4.50;2.08;;;26.40;96.70;;;;;;5045808;28;20498;-80
2023/07/29 07:44:27;;;;;;;4.93;2.10;;;26.40;96.70;;;;;;5044707;28;20119;-80
2023/07/29 07:46:55;;;;;;;4.78;2.10;;;26.40;96.70;;;;;;5045606;28;20037;-79
2023/07/29 07:49:23;;;;;;;5.93;2.05;;;26.50;96.70;;;;;;5045481;28;20041;-79
2023/07/29 07:51:51;;;;;;;7.22;1.67;;;26.50;96.70;;;;;;5045514;28;20188;-77
2023/07/29 07:54:20;;;;;;;7.10;1.92;;;26.50;96.70;;;;;;5045333;28;20051;-77
2023/07/29 07:56:48;;;;;;;4.70;1.83;;;26.70;96.70;;;;;;5052291;28;20041;-81
2023/07/29 07:59:16;;;;;;;5.43;1.80;;;26.80;96.70;;;;;;5041973;28;20102;-78
2023/07/29 08:01:47;;;;;;;5.15;2.00;;;26.90;96.70;;;;;;5042542;28;20071;-77
2023/07/29 08:04:15;;;;;;;5.10;1.60;;;26.90;96.70;;;;;;5041939;28;20131;-76
2023/07/29 08:06:44;;;;;;;2.17;1.58;;;27.00;96.70;;;;;;5046193;28;20155;-76
2023/07/29 08:09:13;;;;;;;4.05;1.67;;;27.00;96.70;;;;;;5053093;28;20055;-76
2023/07/29 08:11:42;;;;;;;3.33;1.80;;;27.10;96.70;;;;;;5050395;28;20037;-76
2023/07/29 08:14:10;;;;;;;3.35;1.50;;;27.20;96.70;;;;;;5045362;28;20653;-75
2023/07/29 08:16:39;;;;;;;1.70;1.40;;;27.10;96.70;;;;;;5042193;28;20048;-76
2023/07/29 08:19:09;;;;;;;3.78;1.60;;;27.20;96.70;;;;;;5029186;28;20054;-76
2023/07/29 08:21:38;;;;;;;3.67;1.60;;;27.20;96.70;;;;;;5051871;28;20375;-76
2023/07/29 08:24:07;;;;;;;5.60;1.90;;;27.20;96.70;;;;;;5053092;28;20095;-76
2023/07/29 08:26:35;;;;;;;5.45;1.88;;;27.30;96.70;;;;;;5053313;28;20048;-76
2023/07/29 08:29:04;;;;;;;3.67;1.60;;;27.40;96.70;;;;;;5050831;28;20048;-76
2023/07/29 08:31:33;;;;;;;3.17;1.85;;;27.50;96.70;;;;;;5045974;28;20083;-76
2023/07/29 08:34:02;;;;;;;4.75;2.10;;;27.60;96.70;;;;;;5042859;28;20040;-76
2023/07/29 08:36:32;;;;;;;7.80;2.00;;;27.60;96.70;;;;;;5043160;28;20091;-76
2023/07/29 08:39:01;;;;;;;5.38;1.65;;;27.80;96.70;;;;;;5042893;28;20037;-76
2023/07/29 08:41:35;;;;;;;5.18;3.08;;;27.90;96.70;;;;;;5025559;28;20052;-76
2023/07/29 08:44:12;;;;;;;4.50;2.03;;;28.10;96.70;;;;;;5043745;28;20045;-76
2023/07/29 08:46:43;;;;;;;4.50;1.83;;;28.20;96.70;;;;;;5042525;28;20041;-77
2023/07/29 08:49:15;;;;;;;5.15;2.33;;;28.30;96.70;;;;;;5045908;28;20120;-77
2023/07/29 08:51:59;;;;;;;7.25;2.03;;;28.30;96.70;;;;;;5100797;27;20734;-77
2023/07/29 08:54:28;;;;;;;4.38;2.05;;;28.40;96.70;;;;;;5094079;28;20040;-78
2023/07/29 08:56:57;;;;;;;5.10;1.65;;;28.40;96.70;;;;;;5080552;28;20040;-77
2023/07/29 08:59:30;;;;;;;6.38;1.95;;;28.50;96.70;;;;;;5078224;28;20037;-77
2023/07/29 09:01:59;;;;;;;4.10;1.90;;;28.60;96.70;;;;;;5079808;28;20083;-77
2023/07/29 09:04:28;;;;;;;5.15;1.98;;;28.60;96.70;;;;;;5077536;28;20068;-77
2023/07/29 09:07:00;;;;;;;4.45;1.83;;;28.60;96.70;;;;;;5061994;28;20072;-77
2023/07/29 09:09:31;;;;;;;3.90;1.90;;;28.70;96.70;;;;;;5076885;28;20485;-77
2023/07/29 09:11:59;;;;;;;5.20;1.98;;;28.70;96.70;;;;;;5080213;28;20056;-77
2023/07/29 09:14:28;;;;;;;3.72;1.70;;;28.70;96.70;;;;;;5079013;28;20113;-77
2023/07/29 09:16:57;;;;;;;4.65;1.92;;;28.80;96.70;;;;;;5080205;28;20044;-77
2023/07/29 09:19:26;;;;;;;4.60;1.50;;;28.90;96.70;;;;;;5090238;28;20166;-78
2023/07/29 09:21:55;;;;;;;2.75;1.83;;;29.00;96.70;;;;;;5079050;28;20082;-78
2023/07/29 09:24:29;;;;;;;4.90;1.92;;;28.90;96.70;;;;;;5080175;28;20048;-78
2023/07/29 09:26:58;;;;;;;4.57;1.67;;;28.90;96.70;;;;;;5078976;28;20051;-77
2023/07/29 09:29:28;;;;;;;3.00;1.60;;;29.10;96.70;;;;;;5079593;28;20037;-77
2023/07/29 09:32:19;;;;;;;6.30;1.85;;;29.30;96.70;;;;;;5076278;28;20463;-78
2023/07/29 09:34:47;;;;;;;3.08;1.90;;;29.20;96.70;;;;;;5079470;28;20516;-77
2023/07/29 09:37:17;;;;;;;5.20;1.75;;;29.20;96.70;;;;;;5062827;28;20040;-77
2023/07/29 09:39:48;;;;;;;5.07;1.95;;;29.10;96.70;;;;;;5079751;28;20406;-77
2023/07/29 09:42:20;;;;;;;2.70;1.80;;;29.40;96.70;;;;;;5076331;28;20093;-77
2023/07/29 09:44:50;;;;;;;2.45;1.88;;;29.60;96.70;;;;;;5088528;28;20052;-77
2023/07/29 09:47:22;;;;;;;3.22;1.80;;;29.60;96.70;;;;;;5078163;28;20517;-78
2023/07/29 09:49:51;;;;;;;4.03;2.05;;;29.70;96.70;;;;;;5077847;28;20060;-78
2023/07/29 09:52:22;;;;;;;3.65;1.85;;;29.70;96.70;;;;;;5075648;28;20055;-77
2023/07/29 09:54:52;;;;;;;3.10;1.75;;;29.80;96.70;;;;;;5079868;28;20445;-78
2023/07/29 09:57:21;;;;;;;3.53;2.10;;;29.90;96.70;;;;;;5091191;28;20041;-78
2023/07/29 09:59:56;;;;;;;5.18;2.20;;;29.90;96.70;;;;;;5077624;28;20048;-79
2023/07/29 10:02:28;;;;;;;2.60;1.63;;;29.90;96.70;;;;;;5069056;28;20072;-77
2023/07/29 10:05:00;;;;;;;3.67;1.95;;;30.00;96.70;;;;;;5065701;28;20139;-77
2023/07/29 10:07:29;;;;;;;2.28;1.75;;;29.80;96.70;;;;;;5066512;28;20098;-78
2023/07/29 10:10:01;;;;;;;4.85;2.08;;;29.90;96.70;;;;;;5061321;28;20047;-78
2023/07/29 10:12:31;;;;;;;3.15;1.95;;;29.80;96.70;;;;;;5057723;28;20091;-78
2023/07/29 10:15:03;;;;;;;4.82;1.83;;;29.80;96.70;;;;;;5065544;28;20040;-77
2023/07/29 10:17:34;;;;;;;4.20;2.35;;;29.70;96.70;;;;;;5066323;28;20660;-78
2023/07/29 10:20:05;;;;;;;2.95;2.08;;;29.70;96.70;;;;;;5066449;28;20041;-79
2023/07/29 10:22:36;;;;;;;4.13;2.03;;;29.80;96.70;;;;;;5081889;28;20122;-79
2023/07/29 10:25:10;;;;;;;6.18;2.45;;;29.90;96.70;;;;;;5054485;28;20665;-78
2023/07/29 10:27:47;;;;;;;4.72;1.70;;;29.90;96.70;;;;;;5048151;28;20047;-79
2023/07/29 10:30:15;;;;;;;4.70;2.45;;;29.90;96.70;;;;;;5071315;28;20048;-81
2023/07/29 10:32:45;;;;;;;4.32;2.58;;;30.00;96.70;;;;;;5047229;28;20048;-82
2023/07/29 10:35:14;;;;;;;4.68;2.20;;;30.10;96.70;;;;;;5065397;28;20051;-79
2023/07/29 10:37:45;;;;;;;3.63;1.92;;;30.00;96.70;;;;;;5065022;28;20037;-80
2023/07/29 10:40:15;;;;;;;4.95;1.73;;;29.90;96.70;;;;;;5065128;28;20036;-79
2023/07/29 10:43:05;;;;;;;4.40;1.83;;;30.10;96.70;;;;;;5063941;28;20041;-81
2023/07/29 10:45:38;;;;;;;5.63;2.78;;;30.30;96.70;;;;;;5064911;28;20043;-81
2023/07/29 10:48:11;;;;;;;5.57;2.20;;;30.40;96.70;;;;;;5061643;28;20064;-80
2023/07/29 10:50:39;;;;;;;4.72;2.20;;;30.70;96.70;;;;;;5064956;28;20061;-81
2023/07/29 10:53:08;;;;;;;3.13;2.03;;;30.90;96.70;;;;;;5060696;28;20151;-81
2023/07/29 10:55:38;;;;;;;4.32;2.22;;;30.70;96.70;;;;;;5061807;28;20055;-83
2023/07/29 10:58:17;;;;;;;4.20;2.17;;;30.90;96.70;;;;;;5065153;28;20041;-83
2023/07/29 11:00:46;;;;;;;6.32;2.28;;;31.00;96.70;;;;;;5063754;28;20044;-82
2023/07/29 11:03:15;;;;;;;3.22;2.33;;;31.00;96.70;;;;;;5063287;28;20051;-81
2023/07/29 11:05:48;;;;;;;4.25;2.00;;;31.00;96.70;;;;;;5065262;28;20104;-82
2023/07/29 11:08:22;;;;;;;3.42;2.35;;;30.90;96.70;;;;;;5063957;28;20048;-83
2023/07/29 11:11:04;;;;;;;4.50;2.28;;;30.90;96.70;;;;;;5065004;28;20130;-81
2023/07/29 11:13:34;;;;;;;4.82;2.60;;;31.20;96.70;;;;;;5078292;28;20090;-79
2023/07/29 11:16:03;;;;;;;3.95;2.00;;;31.40;96.70;;;;;;5065032;28;20072;-80
2023/07/29 11:18:33;;;;;;;3.78;2.00;;;31.50;96.70;;;;;;5063525;28;20055;-82
2023/07/29 11:21:03;;;;;;;4.03;2.22;;;31.80;96.70;;;;;;5069618;28;20052;-82
2023/07/29 11:23:33;;;;;;;6.78;2.15;;;32.00;96.70;;;;;;5063881;28;20040;-82
2023/07/29 11:26:04;;;;;;;3.67;2.40;;;32.10;96.70;;;;;;5063092;28;20045;-79
2023/07/29 11:28:40;;;;;;;3.58;2.30;;;32.40;96.70;;;;;;5062917;28;20052;-80
2023/07/29 11:31:09;;;;;;;4.40;2.33;;;32.40;96.70;;;;;;5063644;28;20498;-79
2023/07/29 11:33:39;;;;;;;3.42;2.30;;;32.40;96.70;;;;;;5064708;28;20040;-79
2023/07/29 11:36:18;;;;;;;3.20;1.88;;;32.20;96.70;;;;;;5046989;28;20048;-80
2023/07/29 11:38:46;;;;;;;5.43;2.33;;;32.10;96.70;;;;;;5046731;28;20052;-80
2023/07/29 11:41:21;;;;;;;5.85;2.38;;;32.10;96.70;;;;;;5064554;28;20052;-81
2023/07/29 11:43:50;;;;;;;5.45;2.30;;;32.30;96.70;;;;;;5058156;28;20061;-79
2023/07/29 11:46:22;;;;;;;3.03;1.95;;;32.20;96.70;;;;;;5063467;28;20126;-79
2023/07/29 11:48:53;;;;;;;3.30;2.05;;;32.30;96.70;;;;;;5046208;28;20078;-78
2023/07/29 11:51:22;;;;;;;3.75;2.15;;;32.30;96.70;;;;;;5056005;28;20056;-79
2023/07/29 11:53:51;;;;;;;7.18;2.83;;;32.50;96.70;;;;;;5046620;28;20052;-81
2023/07/29 11:56:21;;;;;;;9.30;3.80;;;32.50;96.70;;;;;;5062467;28;20139;-79
2023/07/29 11:58:50;;;;;;;8.18;2.65;;;32.40;96.70;;;;;;5063362;28;20044;-79
2023/07/29 12:01:18;;;;;;;9.05;2.83;;;32.50;96.70;;;;;;5061038;28;20135;-78
2023/07/29 12:03:47;;;;;;;5.25;2.47;;;32.60;96.70;;;;;;5062630;28;20429;-80
2023/07/29 12:06:16;;;;;;;3.50;2.08;;;32.70;96.70;;;;;;5064482;28;20051;-83
2023/07/29 12:08:44;;;;;;;12.27;2.55;;;32.50;96.70;;;;;;5066221;28;20117;-86
2023/07/29 12:11:14;;;;;;;4.00;2.35;;;32.10;96.70;;;;;;5064232;28;20044;-78
2023/07/29 12:13:44;;;;;;;3.25;2.10;;;32.40;96.70;;;;;;5063291;28;20040;-77
2023/07/29 12:16:19;;;;;;;4.57;2.40;;;32.40;96.70;;;;;;5063233;28;20048;-81
2023/07/29 12:18:50;;;;;;;5.40;2.20;;;32.00;96.70;;;;;;5064715;28;20552;-82
2023/07/29 12:21:19;;;;;;;4.50;2.40;;;32.00;96.70;;;;;;5065437;28;20294;-79
2023/07/29 12:23:49;;;;;;;5.25;3.70;;;32.10;96.70;;;;;;5064565;28;20045;-80
2023/07/29 12:26:18;;;;;;;4.45;2.50;;;32.20;96.70;;;;;;5062077;28;20049;-80
2023/07/29 12:28:48;;;;;;;6.60;2.47;;;32.50;96.70;;;;;;5057564;28;20048;-79
2023/07/29 12:31:16;;;;;;;3.28;2.20;;;32.50;96.70;;;;;;5061579;28;20050;-78
2023/07/29 12:33:45;;;;;;;3.70;2.08;;;32.60;96.70;;;;;;5043437;28;20048;-81
2023/07/29 12:36:14;;;;;;;3.83;2.15;;;32.80;96.70;;;;;;5062447;28;20079;-80
2023/07/29 12:38:44;;;;;;;5.03;2.20;;;32.70;96.70;;;;;;5064098;28;20036;-78
2023/07/29 12:41:12;;;;;;;3.63;2.00;;;32.30;96.70;;;;;;5078013;28;20048;-79
2023/07/29 12:43:41;;;;;;;5.35;1.98;;;32.10;96.70;;;;;;5062779;28;20752;-80
2023/07/29 12:46:11;;;;;;;5.20;2.22;;;31.80;96.70;;;;;;5077142;28;20485;-76
2023/07/29 12:48:40;;;;;;;3.30;2.35;;;31.80;96.70;;;;;;5063875;28;20051;-79
2023/07/29 12:51:08;;;;;;;2.60;1.98;;;32.30;96.70;;;;;;5064314;28;20051;-82
2023/07/29 12:53:36;;;;;;;3.80;2.03;;;32.10;96.70;;;;;;5063242;28;20123;-84
2023/07/29 12:56:06;;;;;;;3.45;1.92;;;31.80;96.70;;;;;;5049437;28;20409;-83